sensor_id;sensor_type;location;lat;lon;timestamp;P1;durP1;ratioP1;P2;durP2;ratioP2
68224;SDS011;57497;43.322;21.932;2023-03-31T00:00:35;27.6;;;10.2;;
68224;SDS011;57497;43.322;21.932;2023-03-31T00:05:35;31.3;;;13.4;;
68224;SDS011;57497;43.322;21.932;2023-03-31T00:10:33;21.1;;;12.1;;
68224;SDS011;57497;43.322;21.932;2023-03-31T00:15:33;26.4;;;10.6;;
68224;SDS011;57497;43.322;21.932;2023-03-31T00:20:33;27.5;;;13.2;;
68224;SDS011;57497;43.322;21.932;2023-03-31T00:25:33;26;;;11.6;;
68224;SDS011;57497;43.322;21.932;2023-03-31T00:30:33;22.6;;;14.3;;
68224;SDS011;57497;43.322;21.932;2023-03-31T00:35:34;23.5;;;13.2;;
68224;SDS011;57497;43.322;21.932;2023-03-31T00:40:33;39.8;;;17.8;;
68224;SDS011;57497;43.322;21.932;2023-03-31T00:45:33;35.7;;;17;;
68224;SDS011;57497;43.322;21.932;2023-03-31T00:50:34;45.8;;;17.4;;
68224;SDS011;57497;43.322;21.932;2023-03-31T00:55:33;27.6;;;13.7;;
68224;SDS011;57497;43.322;21.932;2023-03-31T01:00:35;32.9;;;12.6;;
68224;SDS011;57497;43.322;21.932;2023-03-31T01:05:35;24.8;;;12.9;;
68224;SDS011;57497;43.322;21.932;2023-03-31T01:10:34;37.2;;;16.4;;
68224;SDS011;57497;43.322;21.932;2023-03-31T01:15:33;23.8;;;12.6;;
68224;SDS011;57497;43.322;21.932;2023-03-31T01:20:35;22.5;;;11.1;;
68224;SDS011;57497;43.322;21.932;2023-03-31T01:26:03;31.6;;;13.8;;
68224;SDS011;57497;43.322;21.932;2023-03-31T01:30:42;15.3;;;9.4;;
68224;SDS011;57497;43.322;21.932;2023-03-31T01:35:38;23;;;11.8;;
68224;SDS011;57497;43.322;21.932;2023-03-31T01:40:34;17.7;;;9.4;;
68224;SDS011;57497;43.322;21.932;2023-03-31T01:45:36;17.4;;;10.2;;
68224;SDS011;57497;43.322;21.932;2023-03-31T01:50:34;21.9;;;12.4;;
68224;SDS011;57497;43.322;21.932;2023-03-31T01:55:34;19.4;;;11.8;;
68224;SDS011;57497;43.322;21.932;2023-03-31T02:00:35;20.8;;;11.1;;
68224;SDS011;57497;43.322;21.932;2023-03-31T02:05:35;28.8;;;13.5;;
68224;SDS011;57497;43.322;21.932;2023-03-31T02:10:33;20;;;14.7;;
68224;SDS011;57497;43.322;21.932;2023-03-31T02:15:33;20.9;;;13.3;;
68224;SDS011;57497;43.322;21.932;2023-03-31T02:20:33;49.7;;;16.4;;
68224;SDS011;57497;43.322;21.932;2023-03-31T02:25:34;31.7;;;12.8;;
68224;SDS011;57497;43.322;21.932;2023-03-31T02:30:35;25.6;;;13.8;;
68224;SDS011;57497;43.322;21.932;2023-03-31T02:35:33;16.9;;;9.4;;
68224;SDS011;57497;43.322;21.932;2023-03-31T02:40:33;25.5;;;12.4;;
68224;SDS011;57497;43.322;21.932;2023-03-31T02:45:37;25.5;;;10;;
68224;SDS011;57497;43.322;21.932;2023-03-31T02:50:33;24.8;;;9.3;;
68224;SDS011;57497;43.322;21.932;2023-03-31T02:55:37;35.7;;;14.8;;
68224;SDS011;57497;43.322;21.932;2023-03-31T03:00:38;27.1;;;12;;
68224;SDS011;57497;43.322;21.932;2023-03-31T03:05:35;25;;;10.7;;
68224;SDS011;57497;43.322;21.932;2023-03-31T03:10:34;15.6;;;8.7;;
68224;SDS011;57497;43.322;21.932;2023-03-31T03:15:34;15.2;;;8;;
68224;SDS011;57497;43.322;21.932;2023-03-31T03:20:33;15.7;;;7.5;;
68224;SDS011;57497;43.322;21.932;2023-03-31T03:25:33;13.6;;;7.9;;
68224;SDS011;57497;43.322;21.932;2023-03-31T03:30:33;18.8;;;7.7;;
68224;SDS011;57497;43.322;21.932;2023-03-31T03:35:33;15.8;;;7.2;;
68224;SDS011;57497;43.322;21.932;2023-03-31T03:40:33;15.6;;;6.7;;
68224;SDS011;57497;43.322;21.932;2023-03-31T03:45:33;26.4;;;7.1;;
68224;SDS011;57497;43.322;21.932;2023-03-31T03:50:35;14.3;;;7.3;;
68224;SDS011;57497;43.322;21.932;2023-03-31T03:55:33;24.2;;;8;;
68224;SDS011;57497;43.322;21.932;2023-03-31T04:00:34;13.9;;;8.1;;
68224;SDS011;57497;43.322;21.932;2023-03-31T04:05:34;18;;;10.7;;
68224;SDS011;57497;43.322;21.932;2023-03-31T04:10:34;42.2;;;17.1;;
68224;SDS011;57497;43.322;21.932;2023-03-31T04:15:33;29.3;;;14.3;;
68224;SDS011;57497;43.322;21.932;2023-03-31T04:20:33;30.6;;;15;;
68224;SDS011;57497;43.322;21.932;2023-03-31T04:25:33;31.4;;;14.5;;
68224;SDS011;57497;43.322;21.932;2023-03-31T04:30:33;44.7;;;18.9;;
68224;SDS011;57497;43.322;21.932;2023-03-31T04:35:33;49.6;;;24.1;;
68224;SDS011;57497;43.322;21.932;2023-03-31T04:40:33;28.9;;;17.1;;
68224;SDS011;57497;43.322;21.932;2023-03-31T04:45:33;36.1;;;17.7;;
68224;SDS011;57497;43.322;21.932;2023-03-31T04:50:33;24.3;;;15.5;;
68224;SDS011;57497;43.322;21.932;2023-03-31T04:55:33;37;;;18.5;;
68224;SDS011;57497;43.322;21.932;2023-03-31T05:00:34;48.1;;;24;;
68224;SDS011;57497;43.322;21.932;2023-03-31T05:05:35;50.8;;;24.7;;
68224;SDS011;57497;43.322;21.932;2023-03-31T05:10:33;57.6;;;24.4;;
68224;SDS011;57497;43.322;21.932;2023-03-31T05:15:35;32;;;16.1;;
68224;SDS011;57497;43.322;21.932;2023-03-31T05:20:33;32.3;;;17;;
68224;SDS011;57497;43.322;21.932;2023-03-31T05:25:33;34.7;;;21;;
68224;SDS011;57497;43.322;21.932;2023-03-31T05:30:33;35.3;;;18;;
68224;SDS011;57497;43.322;21.932;2023-03-31T05:35:33;33.5;;;14.9;;
68224;SDS011;57497;43.322;21.932;2023-03-31T05:40:33;15.1;;;9.1;;
68224;SDS011;57497;43.322;21.932;2023-03-31T05:45:33;34.7;;;8.2;;
68224;SDS011;57497;43.322;21.932;2023-03-31T05:50:33;25.8;;;9;;
68224;SDS011;57497;43.322;21.932;2023-03-31T05:55:34;27.7;;;11.1;;
68224;SDS011;57497;43.322;21.932;2023-03-31T06:00:35;30.7;;;12.8;;
68224;SDS011;57497;43.322;21.932;2023-03-31T06:05:35;31;;;13.3;;
68224;SDS011;57497;43.322;21.932;2023-03-31T06:10:33;20;;;10.1;;
68224;SDS011;57497;43.322;21.932;2023-03-31T06:15:33;16.9;;;11.2;;
68224;SDS011;57497;43.322;21.932;2023-03-31T06:20:33;25.1;;;17.6;;
68224;SDS011;57497;43.322;21.932;2023-03-31T06:25:33;27.8;;;17.4;;
68224;SDS011;57497;43.322;21.932;2023-03-31T06:30:33;42.8;;;17;;
68224;SDS011;57497;43.322;21.932;2023-03-31T06:35:36;37.3;;;13.3;;
68224;SDS011;57497;43.322;21.932;2023-03-31T06:40:33;23.1;;;11.5;;
68224;SDS011;57497;43.322;21.932;2023-03-31T06:45:35;14.9;;;12.5;;
68224;SDS011;57497;43.322;21.932;2023-03-31T06:50:36;20.7;;;13.2;;
68224;SDS011;57497;43.322;21.932;2023-03-31T06:55:33;21.5;;;12.5;;
68224;SDS011;57497;43.322;21.932;2023-03-31T07:00:34;25.1;;;13.3;;
68224;SDS011;57497;43.322;21.932;2023-03-31T07:05:34;25.9;;;14.4;;
68224;SDS011;57497;43.322;21.932;2023-03-31T07:10:33;35.2;;;17;;
68224;SDS011;57497;43.322;21.932;2023-03-31T07:15:33;44.1;;;19.2;;
68224;SDS011;57497;43.322;21.932;2023-03-31T07:20:33;47.3;;;23;;
68224;SDS011;57497;43.322;21.932;2023-03-31T07:25:33;26;;;17.6;;
68224;SDS011;57497;43.322;21.932;2023-03-31T07:30:33;38.9;;;19.4;;
68224;SDS011;57497;43.322;21.932;2023-03-31T07:35:33;41;;;19;;
68224;SDS011;57497;43.322;21.932;2023-03-31T07:40:33;25.1;;;14.6;;
68224;SDS011;57497;43.322;21.932;2023-03-31T07:45:33;31.3;;;12.5;;
68224;SDS011;57497;43.322;21.932;2023-03-31T07:50:33;40.5;;;19;;
68224;SDS011;57497;43.322;21.932;2023-03-31T07:55:33;49.9;;;17.8;;
68224;SDS011;57497;43.322;21.932;2023-03-31T08:00:35;34.5;;;15.9;;
68224;SDS011;57497;43.322;21.932;2023-03-31T08:05:34;29.6;;;14.7;;
68224;SDS011;57497;43.322;21.932;2023-03-31T08:10:33;48.6;;;17.1;;
68224;SDS011;57497;43.322;21.932;2023-03-31T08:15:33;30.7;;;14.3;;
68224;SDS011;57497;43.322;21.932;2023-03-31T08:20:33;24.8;;;11;;
68224;SDS011;57497;43.322;21.932;2023-03-31T08:25:33;12.3;;;8.2;;
68224;SDS011;57497;43.322;21.932;2023-03-31T08:30:35;25.7;;;11.4;;
68224;SDS011;57497;43.322;21.932;2023-03-31T08:35:34;17.5;;;9.6;;
68224;SDS011;57497;43.322;21.932;2023-03-31T08:40:33;34.3;;;17.3;;
68224;SDS011;57497;43.322;21.932;2023-03-31T08:45:34;18.5;;;8.6;;
68224;SDS011;57497;43.322;21.932;2023-03-31T08:50:34;41.1;;;16.7;;
68224;SDS011;57497;43.322;21.932;2023-03-31T08:55:34;17.2;;;11;;
68224;SDS011;57497;43.322;21.932;2023-03-31T09:00:36;15.1;;;9.4;;
68224;SDS011;57497;43.322;21.932;2023-03-31T09:05:36;24.9;;;16.9;;
68224;SDS011;57497;43.322;21.932;2023-03-31T09:10:37;41.5;;;12.8;;
68224;SDS011;57497;43.322;21.932;2023-03-31T09:15:34;16.9;;;9.4;;
68224;SDS011;57497;43.322;21.932;2023-03-31T09:20:33;12.8;;;7.7;;
68224;SDS011;57497;43.322;21.932;2023-03-31T09:25:34;10.9;;;6.7;;
68224;SDS011;57497;43.322;21.932;2023-03-31T09:30:33;22.3;;;9.4;;
68224;SDS011;57497;43.322;21.932;2023-03-31T09:35:33;8.5;;;6.7;;
68224;SDS011;57497;43.322;21.932;2023-03-31T09:40:33;8;;;4.1;;
68224;SDS011;57497;43.322;21.932;2023-03-31T09:45:33;5.2;;;2.9;;
68224;SDS011;57497;43.322;21.932;2023-03-31T09:50:35;7.4;;;2.7;;
68224;SDS011;57497;43.322;21.932;2023-03-31T09:55:36;5.2;;;3.2;;
68224;SDS011;57497;43.322;21.932;2023-03-31T10:00:34;5.1;;;2.8;;
68224;SDS011;57497;43.322;21.932;2023-03-31T10:05:35;5;;;2.1;;
68224;SDS011;57497;43.322;21.932;2023-03-31T10:10:34;9.8;;;3.9;;
68224;SDS011;57497;43.322;21.932;2023-03-31T10:15:35;12.7;;;5;;
68224;SDS011;57497;43.322;21.932;2023-03-31T10:20:33;13.2;;;3.6;;
68224;SDS011;57497;43.322;21.932;2023-03-31T10:25:33;5.1;;;3;;
68224;SDS011;57497;43.322;21.932;2023-03-31T10:30:34;6.6;;;3.4;;
68224;SDS011;57497;43.322;21.932;2023-03-31T10:35:33;7.9;;;3.6;;
68224;SDS011;57497;43.322;21.932;2023-03-31T10:40:33;21.7;;;4.1;;
68224;SDS011;57497;43.322;21.932;2023-03-31T10:45:35;17.3;;;4.7;;
68224;SDS011;57497;43.322;21.932;2023-03-31T10:50:34;6.6;;;4.4;;
68224;SDS011;57497;43.322;21.932;2023-03-31T10:55:35;20.1;;;6.3;;
68224;SDS011;57497;43.322;21.932;2023-03-31T11:00:35;9.4;;;4.1;;
68224;SDS011;57497;43.322;21.932;2023-03-31T11:05:35;13.4;;;3.2;;
68224;SDS011;57497;43.322;21.932;2023-03-31T11:10:40;5.6;;;2.8;;
68224;SDS011;57497;43.322;21.932;2023-03-31T11:15:34;19;;;3.7;;
68224;SDS011;57497;43.322;21.932;2023-03-31T11:20:34;9.6;;;3.4;;
68224;SDS011;57497;43.322;21.932;2023-03-31T11:25:36;6.6;;;3.9;;
68224;SDS011;57497;43.322;21.932;2023-03-31T11:30:34;36.2;;;10.9;;
68224;SDS011;57497;43.322;21.932;2023-03-31T11:35:37;12.8;;;6.1;;
68224;SDS011;57497;43.322;21.932;2023-03-31T11:40:36;8.2;;;4.8;;
68224;SDS011;57497;43.322;21.932;2023-03-31T11:45:34;7.5;;;4.2;;
68224;SDS011;57497;43.322;21.932;2023-03-31T11:50:35;8.3;;;3.2;;
68224;SDS011;57497;43.322;21.932;2023-03-31T11:55:33;9;;;4;;
68224;SDS011;57497;43.322;21.932;2023-03-31T12:00:35;13.3;;;4;;
68224;SDS011;57497;43.322;21.932;2023-03-31T12:05:35;7.9;;;3.9;;
68224;SDS011;57497;43.322;21.932;2023-03-31T12:10:34;6.8;;;3.5;;
68224;SDS011;57497;43.322;21.932;2023-03-31T12:15:34;6;;;3;;
68224;SDS011;57497;43.322;21.932;2023-03-31T12:20:34;7.8;;;4.3;;
68224;SDS011;57497;43.322;21.932;2023-03-31T12:25:37;10;;;6;;
68224;SDS011;57497;43.322;21.932;2023-03-31T12:30:34;10.3;;;5.3;;
68224;SDS011;57497;43.322;21.932;2023-03-31T12:35:35;10.4;;;5.8;;
68224;SDS011;57497;43.322;21.932;2023-03-31T12:40:36;5.6;;;3;;
68224;SDS011;57497;43.322;21.932;2023-03-31T12:45:34;6.5;;;3.9;;
68224;SDS011;57497;43.322;21.932;2023-03-31T12:50:37;10.8;;;4;;
68224;SDS011;57497;43.322;21.932;2023-03-31T12:55:35;6.2;;;3.1;;
68224;SDS011;57497;43.322;21.932;2023-03-31T13:00:34;13.9;;;3.5;;
68224;SDS011;57497;43.322;21.932;2023-03-31T13:05:50;7.6;;;4.5;;
68224;SDS011;57497;43.322;21.932;2023-03-31T13:10:33;6.4;;;3.7;;
68224;SDS011;57497;43.322;21.932;2023-03-31T13:15:33;6.8;;;3.3;;
68224;SDS011;57497;43.322;21.932;2023-03-31T13:20:33;8.8;;;3.8;;
68224;SDS011;57497;43.322;21.932;2023-03-31T13:25:36;7.8;;;3.6;;
68224;SDS011;57497;43.322;21.932;2023-03-31T13:30:50;9.2;;;3.8;;
68224;SDS011;57497;43.322;21.932;2023-03-31T13:35:33;8.7;;;3.2;;
68224;SDS011;57497;43.322;21.932;2023-03-31T13:40:42;13.9;;;4.9;;
68224;SDS011;57497;43.322;21.932;2023-03-31T13:45:39;7.5;;;5.2;;
68224;SDS011;57497;43.322;21.932;2023-03-31T13:50:35;4.8;;;3.4;;
68224;SDS011;57497;43.322;21.932;2023-03-31T13:55:37;24.3;;;6.9;;
68224;SDS011;57497;43.322;21.932;2023-03-31T14:00:39;8.6;;;7.7;;
68224;SDS011;57497;43.322;21.932;2023-03-31T14:05:35;8;;;5.1;;
68224;SDS011;57497;43.322;21.932;2023-03-31T14:10:35;14.2;;;4.5;;
68224;SDS011;57497;43.322;21.932;2023-03-31T14:15:33;9.1;;;6.5;;
68224;SDS011;57497;43.322;21.932;2023-03-31T14:20:37;15.1;;;6.5;;
68224;SDS011;57497;43.322;21.932;2023-03-31T14:25:36;22.2;;;10.6;;
68224;SDS011;57497;43.322;21.932;2023-03-31T14:30:35;11.4;;;10.4;;
68224;SDS011;57497;43.322;21.932;2023-03-31T14:35:33;13.9;;;12.6;;
68224;SDS011;57497;43.322;21.932;2023-03-31T14:40:33;17.8;;;16.4;;
68224;SDS011;57497;43.322;21.932;2023-03-31T14:45:33;22.1;;;20.3;;
68224;SDS011;57497;43.322;21.932;2023-03-31T14:50:34;25.9;;;23.6;;
68224;SDS011;57497;43.322;21.932;2023-03-31T14:55:33;44.4;;;41.4;;
68224;SDS011;57497;43.322;21.932;2023-03-31T15:00:34;34.6;;;31.5;;
68224;SDS011;57497;43.322;21.932;2023-03-31T15:05:35;32.9;;;30.6;;
68224;SDS011;57497;43.322;21.932;2023-03-31T15:10:36;46.9;;;43.8;;
68224;SDS011;57497;43.322;21.932;2023-03-31T15:15:33;67;;;62.7;;
68224;SDS011;57497;43.322;21.932;2023-03-31T15:20:34;44;;;41;;
68224;SDS011;57497;43.322;21.932;2023-03-31T15:25:34;78.5;;;72.4;;
68224;SDS011;57497;43.322;21.932;2023-03-31T15:30:33;34.2;;;32;;
68224;SDS011;57497;43.322;21.932;2023-03-31T15:35:34;31.8;;;29.6;;
68224;SDS011;57497;43.322;21.932;2023-03-31T15:40:35;16.4;;;15.1;;
68224;SDS011;57497;43.322;21.932;2023-03-31T15:45:35;13.8;;;6.8;;
68224;SDS011;57497;43.322;21.932;2023-03-31T15:50:33;12.8;;;10;;
68224;SDS011;57497;43.322;21.932;2023-03-31T15:55:38;8;;;7.2;;
68224;SDS011;57497;43.322;21.932;2023-03-31T16:00:43;18.4;;;5.1;;
68224;SDS011;57497;43.322;21.932;2023-03-31T16:05:35;8.4;;;5.1;;
68224;SDS011;57497;43.322;21.932;2023-03-31T16:10:33;7.9;;;6.5;;
68224;SDS011;57497;43.322;21.932;2023-03-31T16:15:33;12;;;6.2;;
68224;SDS011;57497;43.322;21.932;2023-03-31T16:20:34;25.5;;;6.5;;
68224;SDS011;57497;43.322;21.932;2023-03-31T16:25:35;13.2;;;6.7;;
68224;SDS011;57497;43.322;21.932;2023-03-31T16:30:34;11.9;;;7.1;;
68224;SDS011;57497;43.322;21.932;2023-03-31T16:35:34;24.2;;;8;;
68224;SDS011;57497;43.322;21.932;2023-03-31T16:40:34;14.8;;;7.6;;
68224;SDS011;57497;43.322;21.932;2023-03-31T16:45:33;19.8;;;9.3;;
68224;SDS011;57497;43.322;21.932;2023-03-31T16:50:33;24.1;;;10.1;;
68224;SDS011;57497;43.322;21.932;2023-03-31T16:55:33;17.3;;;9.2;;
68224;SDS011;57497;43.322;21.932;2023-03-31T17:00:34;29.6;;;11;;
68224;SDS011;57497;43.322;21.932;2023-03-31T17:05:36;21.3;;;9.1;;
68224;SDS011;57497;43.322;21.932;2023-03-31T17:10:33;25.3;;;9.4;;
68224;SDS011;57497;43.322;21.932;2023-03-31T17:15:33;14.7;;;5.7;;
68224;SDS011;57497;43.322;21.932;2023-03-31T17:20:33;36.3;;;9.4;;
68224;SDS011;57497;43.322;21.932;2023-03-31T17:25:33;14.1;;;9.2;;
68224;SDS011;57497;43.322;21.932;2023-03-31T17:30:34;20.6;;;8.4;;
68224;SDS011;57497;43.322;21.932;2023-03-31T17:35:33;16.4;;;8.7;;
68224;SDS011;57497;43.322;21.932;2023-03-31T17:40:33;17.3;;;9.9;;
68224;SDS011;57497;43.322;21.932;2023-03-31T17:45:33;14.7;;;6.6;;
68224;SDS011;57497;43.322;21.932;2023-03-31T17:50:33;20;;;8.5;;
68224;SDS011;57497;43.322;21.932;2023-03-31T17:55:34;22.5;;;7.5;;
68224;SDS011;57497;43.322;21.932;2023-03-31T18:00:34;14.4;;;6.9;;
68224;SDS011;57497;43.322;21.932;2023-03-31T18:05:34;15.9;;;7.1;;
68224;SDS011;57497;43.322;21.932;2023-03-31T18:10:33;10.8;;;5.5;;
68224;SDS011;57497;43.322;21.932;2023-03-31T18:15:35;12.9;;;7.6;;
68224;SDS011;57497;43.322;21.932;2023-03-31T18:20:33;21.1;;;9.7;;
68224;SDS011;57497;43.322;21.932;2023-03-31T18:25:33;15.5;;;6.4;;
68224;SDS011;57497;43.322;21.932;2023-03-31T18:30:33;9.7;;;6.3;;
68224;SDS011;57497;43.322;21.932;2023-03-31T18:35:33;12;;;5.8;;
68224;SDS011;57497;43.322;21.932;2023-03-31T18:40:33;11;;;4.1;;
68224;SDS011;57497;43.322;21.932;2023-03-31T18:45:33;12;;;5;;
68224;SDS011;57497;43.322;21.932;2023-03-31T18:50:33;7.7;;;4.4;;
68224;SDS011;57497;43.322;21.932;2023-03-31T18:55:33;5.3;;;3.2;;
68224;SDS011;57497;43.322;21.932;2023-03-31T19:00:35;7.8;;;4.1;;
68224;SDS011;57497;43.322;21.932;2023-03-31T19:05:34;19;;;4;;
68224;SDS011;57497;43.322;21.932;2023-03-31T19:10:34;10.3;;;6.1;;
68224;SDS011;57497;43.322;21.932;2023-03-31T19:15:33;20;;;6.5;;
68224;SDS011;57497;43.322;21.932;2023-03-31T19:20:33;8.9;;;5.3;;
68224;SDS011;57497;43.322;21.932;2023-03-31T19:25:33;14.3;;;8.8;;
68224;SDS011;57497;43.322;21.932;2023-03-31T19:30:33;13.3;;;6.2;;
68224;SDS011;57497;43.322;21.932;2023-03-31T19:35:33;13.2;;;5.6;;
68224;SDS011;57497;43.322;21.932;2023-03-31T19:40:34;27.2;;;13.4;;
68224;SDS011;57497;43.322;21.932;2023-03-31T19:45:34;7.2;;;4.9;;
68224;SDS011;57497;43.322;21.932;2023-03-31T19:50:33;25.7;;;5.7;;
68224;SDS011;57497;43.322;21.932;2023-03-31T19:55:33;12.9;;;6.6;;
68224;SDS011;57497;43.322;21.932;2023-03-31T20:00:34;25.8;;;8.8;;
68224;SDS011;57497;43.322;21.932;2023-03-31T20:05:34;13.7;;;5.3;;
68224;SDS011;57497;43.322;21.932;2023-03-31T20:10:33;12.9;;;7.3;;
68224;SDS011;57497;43.322;21.932;2023-03-31T20:15:33;12.8;;;7.1;;
68224;SDS011;57497;43.322;21.932;2023-03-31T20:20:33;17;;;9.5;;
68224;SDS011;57497;43.322;21.932;2023-03-31T20:25:34;24.2;;;7.5;;
68224;SDS011;57497;43.322;21.932;2023-03-31T20:30:33;17.4;;;5.9;;
68224;SDS011;57497;43.322;21.932;2023-03-31T20:35:33;8;;;3.8;;
68224;SDS011;57497;43.322;21.932;2023-03-31T20:40:33;12.8;;;4.9;;
68224;SDS011;57497;43.322;21.932;2023-03-31T20:45:33;7.1;;;3.6;;
68224;SDS011;57497;43.322;21.932;2023-03-31T20:50:34;8.7;;;5.3;;
68224;SDS011;57497;43.322;21.932;2023-03-31T20:55:33;20.4;;;3.5;;
68224;SDS011;57497;43.322;21.932;2023-03-31T21:00:34;9;;;4.1;;
68224;SDS011;57497;43.322;21.932;2023-03-31T21:05:39;12.1;;;4;;
68224;SDS011;57497;43.322;21.932;2023-03-31T21:10:37;15.2;;;4.5;;
68224;SDS011;57497;43.322;21.932;2023-03-31T21:15:34;7.5;;;4.3;;
68224;SDS011;57497;43.322;21.932;2023-03-31T21:20:33;11.7;;;4.7;;
68224;SDS011;57497;43.322;21.932;2023-03-31T21:25:33;11.5;;;4.1;;
68224;SDS011;57497;43.322;21.932;2023-03-31T21:30:33;15;;;5.7;;
68224;SDS011;57497;43.322;21.932;2023-03-31T21:35:33;27;;;4.7;;
68224;SDS011;57497;43.322;21.932;2023-03-31T21:40:33;13.5;;;4.7;;
68224;SDS011;57497;43.322;21.932;2023-03-31T21:45:33;13.9;;;5.1;;
68224;SDS011;57497;43.322;21.932;2023-03-31T21:50:34;9;;;5.9;;
68224;SDS011;57497;43.322;21.932;2023-03-31T21:55:33;11;;;4.4;;
68224;SDS011;57497;43.322;21.932;2023-03-31T22:00:34;7.2;;;3.7;;
68224;SDS011;57497;43.322;21.932;2023-03-31T22:05:34;8.3;;;4;;
68224;SDS011;57497;43.322;21.932;2023-03-31T22:10:33;15.6;;;7.3;;
68224;SDS011;57497;43.322;21.932;2023-03-31T22:15:33;25.7;;;10.1;;
68224;SDS011;57497;43.322;21.932;2023-03-31T22:20:33;12.5;;;8.1;;
68224;SDS011;57497;43.322;21.932;2023-03-31T22:25:34;11.4;;;5.4;;
68224;SDS011;57497;43.322;21.932;2023-03-31T22:30:33;19.4;;;6.9;;
68224;SDS011;57497;43.322;21.932;2023-03-31T22:35:33;19.4;;;10.3;;
68224;SDS011;57497;43.322;21.932;2023-03-31T22:40:33;20.1;;;9.5;;
68224;SDS011;57497;43.322;21.932;2023-03-31T22:45:34;20.8;;;8.4;;
68224;SDS011;57497;43.322;21.932;2023-03-31T22:50:33;22.2;;;9.9;;
68224;SDS011;57497;43.322;21.932;2023-03-31T22:55:33;28.9;;;10.2;;
68224;SDS011;57497;43.322;21.932;2023-03-31T23:00:34;23.2;;;9.2;;
68224;SDS011;57497;43.322;21.932;2023-03-31T23:05:36;15.9;;;8.9;;
68224;SDS011;57497;43.322;21.932;2023-03-31T23:10:34;25.9;;;10.4;;
68224;SDS011;57497;43.322;21.932;2023-03-31T23:15:33;20.8;;;9.5;;
68224;SDS011;57497;43.322;21.932;2023-03-31T23:20:33;22;;;9.4;;
68224;SDS011;57497;43.322;21.932;2023-03-31T23:25:33;20.1;;;6.6;;
68224;SDS011;57497;43.322;21.932;2023-03-31T23:30:33;22.5;;;5;;
68224;SDS011;57497;43.322;21.932;2023-03-31T23:35:33;11.2;;;5.4;;
68224;SDS011;57497;43.322;21.932;2023-03-31T23:40:33;17.3;;;6.8;;
68224;SDS011;57497;43.322;21.932;2023-03-31T23:45:33;16.3;;;7.6;;
68224;SDS011;57497;43.322;21.932;2023-03-31T23:50:34;18.3;;;7.3;;
68224;SDS011;57497;43.322;21.932;2023-03-31T23:55:33;14.6;;;6.1;;
